Time;durP1;ratioP1;P1;durP2;ratioP2;P2;SDS_P1;SDS_P2;PMS_P1;PMS_P2;Temp;Humidity;BMP_temperature;BMP_pressure;BME280_temperature;BME280_humidity;BME280_pressure;Samples;Min_cycle;Max_cycle;Signal;HPM_P1;HPM_P2
2020/12/05 00:00:11;;;;;;;12.43;5.07;;;4.20;99.90;;;;;;5038826;28;20168;-84
2020/12/05 00:02:37;;;;;;;9.33;5.03;;;4.30;99.90;;;;;;5038957;28;20230;-84
2020/12/05 00:05:05;;;;;;;9.87;5.10;;;4.20;99.90;;;;;;5039593;28;20165;-83
2020/12/05 00:07:31;;;;;;;11.15;5.45;;;4.20;99.90;;;;;;5037721;28;20422;-82
2020/12/05 00:09:57;;;;;;;9.70;4.90;;;4.40;99.90;;;;;;5038685;28;20527;-83
2020/12/05 00:12:22;;;;;;;10.03;4.80;;;4.40;99.90;;;;;;5038701;28;20172;-83
2020/12/05 00:14:48;;;;;;;11.23;4.73;;;4.40;99.90;;;;;;5038552;28;20165;-85
2020/12/05 00:17:13;;;;;;;6.30;4.80;;;4.50;99.90;;;;;;5038642;28;20161;-85
2020/12/05 00:19:42;;;;;;;10.10;4.47;;;4.40;99.90;;;;;;5038779;28;20264;-85
2020/12/05 00:22:08;;;;;;;15.50;6.03;;;4.40;99.90;;;;;;5038241;28;20629;-85
2020/12/05 00:24:33;;;;;;;11.20;4.97;;;4.40;99.90;;;;;;5038047;28;20290;-85
2020/12/05 00:26:59;;;;;;;6.90;4.43;;;4.30;99.90;;;;;;5038563;28;20165;-85
2020/12/05 00:29:24;;;;;;;13.23;4.70;;;4.40;99.90;;;;;;5038397;28;20165;-86
2020/12/05 00:31:51;;;;;;;6.57;4.17;;;4.30;99.90;;;;;;5038461;28;20200;-86
2020/12/05 00:34:18;;;;;;;7.43;4.67;;;4.20;99.90;;;;;;5038374;28;20196;-86
2020/12/05 00:36:44;;;;;;;9.80;4.57;;;4.20;99.90;;;;;;5055991;28;20168;-86
2020/12/05 00:39:10;;;;;;;7.87;4.60;;;4.10;99.90;;;;;;5038001;28;20200;-86
2020/12/05 00:41:35;;;;;;;7.60;4.73;;;4.10;99.90;;;;;;5037709;28;20216;-85
2020/12/05 00:44:01;;;;;;;8.83;4.40;;;4.10;99.90;;;;;;5038122;28;20585;-85
2020/12/05 00:46:27;;;;;;;9.13;4.90;;;4.10;99.90;;;;;;5038083;28;20575;-87
2020/12/05 00:48:53;;;;;;;11.23;4.03;;;4.10;99.90;;;;;;5038257;28;20176;-86
2020/12/05 00:51:18;;;;;;;7.93;4.50;;;4.10;99.90;;;;;;5038331;28;20588;-87
2020/12/05 00:53:44;;;;;;;7.37;4.63;;;4.00;99.90;;;;;;5038269;28;20260;-87
2020/12/05 00:56:09;;;;;;;7.03;4.20;;;4.00;99.90;;;;;;5038070;28;20173;-87
2020/12/05 00:58:35;;;;;;;7.20;4.60;;;4.00;99.90;;;;;;5055479;28;20165;-87
2020/12/05 01:01:07;;;;;;;9.03;4.67;;;4.00;99.90;;;;;;5037862;28;20607;-86
2020/12/05 01:03:33;;;;;;;5.13;4.20;;;4.10;99.90;;;;;;5055771;28;20236;-87
2020/12/05 01:05:58;;;;;;;5.73;4.43;;;4.20;99.90;;;;;;5037952;28;20243;-86
2020/12/05 01:08:30;;;;;;;10.80;4.87;;;4.40;99.90;;;;;;5038357;28;20627;-87
2020/12/05 01:10:58;;;;;;;8.60;4.53;;;4.50;99.90;;;;;;5037965;28;20620;-87
2020/12/05 01:13:23;;;;;;;7.73;4.23;;;4.50;99.90;;;;;;5038206;28;20619;-87
2020/12/05 01:15:49;;;;;;;9.17;4.37;;;4.60;99.90;;;;;;5038038;28;20262;-87
2020/12/05 01:18:15;;;;;;;7.50;4.53;;;4.70;99.90;;;;;;5038441;28;20160;-88
2020/12/05 01:20:40;;;;;;;12.97;4.30;;;4.70;99.90;;;;;;5037340;28;20220;-87
2020/12/05 01:23:06;;;;;;;5.23;4.17;;;4.80;99.90;;;;;;5037826;28;20172;-88
2020/12/05 01:25:31;;;;;;;11.57;5.17;;;4.90;99.90;;;;;;5037610;28;20615;-86
2020/12/05 01:27:57;;;;;;;8.43;4.60;;;5.00;99.90;;;;;;5037689;28;20196;-87
2020/12/05 01:30:23;;;;;;;8.17;4.80;;;5.00;99.90;;;;;;5021450;28;20165;-86
2020/12/05 01:32:48;;;;;;;8.30;4.93;;;5.20;99.90;;;;;;5037511;28;20160;-86
2020/12/05 01:35:14;;;;;;;11.33;5.47;;;5.20;99.90;;;;;;5037573;28;20215;-87
2020/12/05 01:37:40;;;;;;;10.20;4.20;;;5.20;99.90;;;;;;5020781;28;20204;-86
2020/12/05 01:40:05;;;;;;;8.53;4.43;;;5.20;99.90;;;;;;5037192;28;20172;-87
2020/12/05 01:42:31;;;;;;;7.47;4.87;;;5.20;99.90;;;;;;5037184;28;20208;-87
2020/12/05 01:44:57;;;;;;;10.30;4.77;;;5.30;99.90;;;;;;5055048;28;20157;-86
2020/12/05 01:47:26;;;;;;;8.33;4.80;;;5.30;99.90;;;;;;5037693;28;20263;-87
2020/12/05 01:49:52;;;;;;;5.83;4.27;;;5.40;99.90;;;;;;5037078;28;20616;-86
2020/12/05 01:52:19;;;;;;;9.60;4.23;;;5.40;99.90;;;;;;5037198;28;20177;-86
2020/12/05 01:54:45;;;;;;;6.97;4.40;;;5.40;99.90;;;;;;5036453;28;20270;-86
2020/12/05 01:57:11;;;;;;;4.57;3.80;;;5.40;99.90;;;;;;5036899;28;20177;-86
2020/12/05 01:59:39;;;;;;;7.40;4.87;;;5.30;99.90;;;;;;5035991;28;20184;-86
2020/12/05 02:02:06;;;;;;;10.67;4.80;;;5.30;99.90;;;;;;5037268;28;20287;-86
2020/12/05 02:04:55;;;;;;;7.43;4.17;;;5.40;99.90;;;;;;5020498;28;20196;-86
2020/12/05 02:07:36;;;;;;;6.67;4.37;;;5.40;99.90;;;;;;5036630;28;20188;-86
2020/12/05 02:10:08;;;;;;;5.83;4.40;;;5.50;99.90;;;;;;5054214;28;20168;-85
2020/12/05 02:12:54;;;;;;;10.83;4.10;;;5.50;99.90;;;;;;5054493;28;20145;-86
2020/12/05 02:15:28;;;;;;;6.63;4.30;;;5.40;99.90;;;;;;5036547;28;20630;-86
2020/12/05 02:18:06;;;;;;;5.97;4.40;;;5.40;99.90;;;;;;5036462;28;20169;-87
2020/12/05 02:20:37;;;;;;;7.87;4.03;;;5.40;99.90;;;;;;5036029;28;20168;-86
2020/12/05 02:23:15;;;;;;;6.17;4.20;;;5.40;99.90;;;;;;5036808;28;20196;-85
2020/12/05 02:25:50;;;;;;;5.83;3.73;;;5.40;99.90;;;;;;5035912;28;20176;-86
2020/12/05 02:28:21;;;;;;;5.23;3.33;;;5.40;99.90;;;;;;5035706;28;20274;-86
2020/12/05 02:30:47;;;;;;;10.07;3.93;;;5.50;99.90;;;;;;5036100;28;20165;-86
2020/12/05 02:33:17;;;;;;;5.10;3.60;;;5.50;99.90;;;;;;5036246;28;20655;-86
2020/12/05 02:35:46;;;;;;;5.53;3.40;;;5.70;99.90;;;;;;5035997;28;20179;-86
2020/12/05 02:38:22;;;;;;;7.87;4.80;;;6.20;99.90;;;;;;5036073;28;20168;-86
2020/12/05 02:40:50;;;;;;;6.80;3.43;;;6.40;99.90;;;;;;5035940;28;20200;-85
2020/12/05 02:43:15;;;;;;;5.20;3.47;;;6.30;99.90;;;;;;5036161;28;20223;-86
2020/12/05 02:45:41;;;;;;;4.20;3.00;;;6.40;99.90;;;;;;5036087;28;20603;-85
2020/12/05 02:48:08;;;;;;;4.67;3.10;;;6.60;99.90;;;;;;5036048;28;20227;-86
2020/12/05 02:50:34;;;;;;;3.67;2.60;;;6.60;99.90;;;;;;5035862;28;20164;-85
2020/12/05 02:52:59;;;;;;;4.47;2.57;;;6.50;99.90;;;;;;5035917;28;20611;-86
2020/12/05 02:55:25;;;;;;;7.00;3.40;;;6.50;99.90;;;;;;5035563;28;20259;-85
2020/12/05 02:57:51;;;;;;;6.90;3.03;;;6.60;99.90;;;;;;5035636;28;20180;-86
2020/12/05 03:00:16;;;;;;;5.23;2.83;;;6.30;99.90;;;;;;5054223;28;20252;-85
2020/12/05 03:02:42;;;;;;;7.23;3.00;;;6.20;99.90;;;;;;5053619;28;20253;-86
2020/12/05 03:05:08;;;;;;;5.93;3.80;;;6.10;99.90;;;;;;5035746;28;20180;-86
2020/12/05 03:07:34;;;;;;;5.33;2.87;;;6.10;99.90;;;;;;5035848;28;20212;-85
2020/12/05 03:09:59;;;;;;;5.23;3.37;;;6.20;99.90;;;;;;5053532;28;20548;-85
2020/12/05 03:12:25;;;;;;;7.10;3.17;;;6.30;99.90;;;;;;5038552;28;20187;-85
2020/12/05 03:14:51;;;;;;;3.53;2.87;;;6.40;99.90;;;;;;5058222;28;20600;-85
2020/12/05 03:17:17;;;;;;;5.00;2.53;;;6.40;99.90;;;;;;5039744;28;20305;-85
2020/12/05 03:19:42;;;;;;;4.10;3.00;;;6.40;99.90;;;;;;5039808;28;20676;-86
2020/12/05 03:22:08;;;;;;;6.63;2.80;;;6.40;99.90;;;;;;5039227;28;20238;-86
2020/12/05 03:24:36;;;;;;;7.30;3.20;;;6.50;99.90;;;;;;5057162;28;20188;-85
2020/12/05 03:27:03;;;;;;;5.87;3.20;;;6.60;99.90;;;;;;5057247;28;20168;-85
2020/12/05 03:29:28;;;;;;;6.70;3.50;;;6.50;99.90;;;;;;5056848;28;20184;-86
2020/12/05 03:34:22;;;;;;;5.57;2.97;;;6.40;99.90;;;;;;5057353;28;20203;-86
2020/12/05 03:36:48;;;;;;;4.53;3.50;;;6.50;99.90;;;;;;5039321;28;20177;-85
2020/12/05 03:39:16;;;;;;;8.97;3.60;;;6.50;99.90;;;;;;5056959;28;20173;-86
2020/12/05 03:41:42;;;;;;;4.00;3.47;;;6.70;99.90;;;;;;5039448;28;20221;-86
2020/12/05 03:44:08;;;;;;;8.33;3.57;;;6.60;99.90;;;;;;5056915;28;20620;-85
2020/12/05 03:46:34;;;;;;;9.40;3.63;;;6.70;99.90;;;;;;5039303;28;20237;-85
2020/12/05 03:49:00;;;;;;;5.53;3.27;;;6.60;99.90;;;;;;5039091;28;20243;-86
2020/12/05 03:51:26;;;;;;;8.10;3.83;;;6.70;99.90;;;;;;5039002;28;20264;-84
2020/12/05 03:53:52;;;;;;;5.30;3.53;;;6.70;99.90;;;;;;5039153;28;20546;-86
2020/12/05 03:56:18;;;;;;;8.00;3.83;;;6.80;99.90;;;;;;5056750;28;20180;-86
2020/12/05 03:58:43;;;;;;;4.93;3.73;;;7.00;99.90;;;;;;5039091;28;20671;-87
2020/12/05 04:01:09;;;;;;;4.67;3.87;;;6.90;99.90;;;;;;5039337;28;20193;-87
2020/12/05 04:03:35;;;;;;;6.60;4.10;;;7.00;99.90;;;;;;5039374;28;20165;-87
2020/12/05 04:06:01;;;;;;;6.40;3.90;;;6.90;99.90;;;;;;5039453;28;20259;-88
2020/12/05 04:08:27;;;;;;;6.03;3.60;;;6.70;99.90;;;;;;5039497;28;20222;-87
2020/12/05 04:10:53;;;;;;;8.27;3.73;;;6.50;99.90;;;;;;5039123;28;20572;-87
2020/12/05 04:13:18;;;;;;;6.53;4.13;;;6.30;99.90;;;;;;5038997;28;20180;-86
2020/12/05 04:15:46;;;;;;;5.17;3.90;;;6.30;99.90;;;;;;5038875;28;20168;-88
2020/12/05 04:18:12;;;;;;;9.37;4.37;;;6.20;99.90;;;;;;5038937;28;20632;-87
2020/12/05 04:20:37;;;;;;;7.33;4.60;;;6.10;99.90;;;;;;5056339;28;20188;-87
2020/12/05 04:23:03;;;;;;;6.90;4.57;;;6.10;99.90;;;;;;5038196;28;20169;-86
2020/12/05 04:25:29;;;;;;;7.83;4.47;;;6.20;99.90;;;;;;5038625;28;20168;-86
2020/12/05 04:27:54;;;;;;;7.07;4.90;;;6.10;99.90;;;;;;5021930;28;20173;-86
2020/12/05 04:30:21;;;;;;;9.93;4.80;;;5.90;99.90;;;;;;5038785;28;20156;-86
2020/12/05 04:32:50;;;;;;;7.70;4.90;;;5.80;99.90;;;;;;5056332;28;20172;-86
2020/12/05 04:35:16;;;;;;;5.67;4.50;;;5.70;99.90;;;;;;5038598;28;20176;-86
2020/12/05 04:37:45;;;;;;;6.03;5.00;;;5.80;99.90;;;;;;5039059;28;20160;-86
2020/12/05 04:40:10;;;;;;;6.07;4.97;;;5.80;99.90;;;;;;5038553;28;20171;-86
2020/12/05 04:42:43;;;;;;;8.40;5.60;;;5.80;99.90;;;;;;5038554;28;20193;-86
2020/12/05 04:45:09;;;;;;;5.90;5.30;;;5.60;99.90;;;;;;5038375;28;20255;-86
2020/12/05 04:47:36;;;;;;;7.47;5.87;;;5.60;99.90;;;;;;5038596;28;20248;-87
2020/12/05 04:50:02;;;;;;;6.77;5.77;;;5.60;99.90;;;;;;5038617;28;20180;-87
2020/12/05 04:52:51;;;;;;;7.70;5.57;;;5.80;99.90;;;;;;5039001;28;20603;-87
2020/12/05 04:55:23;;;;;;;8.70;6.07;;;5.70;99.90;;;;;;5037821;28;20271;-87
2020/12/05 04:57:59;;;;;;;7.13;6.17;;;5.70;99.90;;;;;;5038191;28;20295;-86
2020/12/05 05:00:28;;;;;;;5.63;5.13;;;5.70;99.90;;;;;;5038544;28;20172;-88
2020/12/05 05:02:58;;;;;;;7.03;5.60;;;5.80;99.90;;;;;;5038242;28;20172;-86
2020/12/05 05:05:24;;;;;;;7.57;6.53;;;5.70;99.90;;;;;;5038777;28;20180;-87
2020/12/05 05:07:56;;;;;;;6.67;5.67;;;5.60;99.90;;;;;;5039192;28;20227;-87
2020/12/05 05:10:32;;;;;;;9.37;5.60;;;5.60;99.90;;;;;;5038594;28;20175;-87
2020/12/05 05:13:14;;;;;;;10.40;5.70;;;5.60;99.90;;;;;;5038209;28;20658;-86
2020/12/05 05:15:41;;;;;;;7.03;6.27;;;5.60;99.90;;;;;;5038404;28;20172;-85
2020/12/05 05:18:13;;;;;;;6.17;4.80;;;5.60;99.90;;;;;;5037936;28;20172;-86
2020/12/05 05:20:45;;;;;;;6.37;5.73;;;5.70;99.90;;;;;;5037283;28;20600;-85
2020/12/05 05:23:19;;;;;;;7.20;5.97;;;5.70;99.90;;;;;;5037625;28;20631;-86
2020/12/05 05:25:59;;;;;;;8.57;6.07;;;5.80;99.90;;;;;;5037057;28;20266;-87
2020/12/05 05:28:31;;;;;;;6.40;5.70;;;5.80;99.90;;;;;;5037005;28;20176;-87
2020/12/05 05:31:11;;;;;;;6.03;5.30;;;5.70;99.90;;;;;;5037416;28;20645;-85
2020/12/05 05:33:57;;;;;;;9.03;6.43;;;5.80;99.90;;;;;;5037620;28;20168;-86
2020/12/05 05:36:32;;;;;;;7.93;6.60;;;5.70;99.90;;;;;;5036290;28;20172;-86
2020/12/05 05:39:00;;;;;;;6.70;5.60;;;5.70;99.90;;;;;;5037335;28;20194;-86
2020/12/05 05:41:26;;;;;;;6.07;5.53;;;5.70;99.90;;;;;;5037229;28;20200;-87
2020/12/05 05:43:58;;;;;;;6.70;5.47;;;5.60;99.90;;;;;;5037522;28;20165;-86
2020/12/05 05:46:27;;;;;;;6.03;5.27;;;5.60;99.90;;;;;;5037398;28;20252;-84
2020/12/05 05:48:53;;;;;;;6.57;5.37;;;5.50;99.90;;;;;;5036866;28;20191;-84
2020/12/05 05:51:48;;;;;;;6.63;5.50;;;5.30;99.90;;;;;;5036812;28;20224;-84
2020/12/05 05:54:42;;;;;;;5.57;4.87;;;5.20;99.90;;;;;;5036783;28;20566;-84
2020/12/05 05:57:15;;;;;;;7.93;4.37;;;5.10;99.90;;;;;;5023587;28;20184;-84
2020/12/05 05:59:42;;;;;;;7.37;5.73;;;5.00;99.90;;;;;;5036346;28;20165;-84
2020/12/05 06:02:10;;;;;;;6.80;5.67;;;5.10;99.90;;;;;;5036074;28;20196;-84
2020/12/05 06:04:46;;;;;;;6.33;5.73;;;5.00;99.90;;;;;;5036592;28;20238;-84
2020/12/05 06:07:17;;;;;;;6.47;5.87;;;5.00;99.90;;;;;;5036878;28;20628;-84
2020/12/05 06:09:51;;;;;;;5.43;4.90;;;5.00;99.90;;;;;;5036521;28;20221;-85
2020/12/05 06:12:25;;;;;;;6.20;5.10;;;5.20;99.90;;;;;;5036381;28;20527;-84
2020/12/05 06:14:52;;;;;;;5.83;4.90;;;5.30;99.90;;;;;;5035819;28;20169;-84
2020/12/05 06:17:19;;;;;;;5.93;4.83;;;5.40;99.90;;;;;;5036310;28;20214;-84
2020/12/05 06:19:47;;;;;;;5.73;4.97;;;5.30;99.90;;;;;;5036304;28;20265;-85
2020/12/05 06:22:23;;;;;;;5.97;4.77;;;5.10;99.90;;;;;;5035917;28;20228;-85
2020/12/05 06:25:10;;;;;;;7.43;6.53;;;5.10;99.90;;;;;;5036371;28;20196;-85
2020/12/05 06:27:37;;;;;;;12.30;5.67;;;5.10;99.90;;;;;;5036144;28;20245;-85
2020/12/05 06:30:09;;;;;;;5.80;4.90;;;5.00;99.90;;;;;;5036197;28;20175;-84
2020/12/05 06:32:38;;;;;;;5.83;5.23;;;5.20;99.90;;;;;;5035760;28;20165;-85
2020/12/05 06:35:05;;;;;;;10.20;5.03;;;5.30;99.90;;;;;;5035745;28;20201;-84
2020/12/05 06:37:34;;;;;;;5.77;5.23;;;5.20;99.90;;;;;;5035925;28;20165;-84
2020/12/05 06:40:05;;;;;;;6.03;5.00;;;5.10;99.90;;;;;;5035879;28;20533;-85
2020/12/05 06:42:45;;;;;;;7.97;5.40;;;4.90;99.90;;;;;;5035865;28;20201;-85
2020/12/05 06:45:26;;;;;;;10.87;5.77;;;5.10;99.90;;;;;;5035885;28;20183;-84
2020/12/05 06:48:17;;;;;;;7.03;5.20;;;4.90;99.90;;;;;;5035645;28;20179;-84
2020/12/05 06:50:45;;;;;;;5.20;4.80;;;4.80;99.90;;;;;;5026766;28;20180;-85
2020/12/05 06:53:19;;;;;;;5.73;4.77;;;4.70;99.90;;;;;;5035771;28;20183;-85
2020/12/05 06:55:46;;;;;;;5.47;4.93;;;4.60;99.90;;;;;;5035683;28;20176;-85
2020/12/05 06:58:22;;;;;;;5.67;4.97;;;4.50;99.90;;;;;;5035721;28;20204;-85
2020/12/05 07:00:54;;;;;;;6.17;5.57;;;4.70;99.90;;;;;;5035984;28;22084;-85
2020/12/05 07:03:31;;;;;;;5.80;5.23;;;4.60;99.90;;;;;;5034521;28;20287;-85
2020/12/05 07:05:58;;;;;;;6.17;5.23;;;4.60;99.90;;;;;;5035301;28;20168;-84
2020/12/05 07:08:39;;;;;;;9.87;5.53;;;4.60;99.90;;;;;;5035480;28;20630;-85
2020/12/05 07:11:12;;;;;;;11.00;5.73;;;4.70;99.90;;;;;;5053451;28;20148;-84
2020/12/05 07:13:45;;;;;;;7.23;5.30;;;4.60;99.90;;;;;;5035487;28;20168;-84
2020/12/05 07:16:14;;;;;;;7.73;5.67;;;4.50;99.90;;;;;;5035457;28;20161;-84
2020/12/05 07:18:45;;;;;;;9.23;6.30;;;4.50;99.90;;;;;;5035679;28;20176;-83
2020/12/05 07:21:11;;;;;;;11.20;7.35;;;4.50;99.90;;;;;;5034230;28;20477;-84
2020/12/05 07:23:37;;;;;;;12.20;6.77;;;4.60;99.90;;;;;;5035521;28;20165;-86
2020/12/05 07:26:04;;;;;;;6.50;5.90;;;4.50;99.90;;;;;;5036012;28;20495;-85
2020/12/05 07:28:30;;;;;;;7.35;6.28;;;4.60;99.90;;;;;;5035780;28;20545;-85
2020/12/05 07:30:56;;;;;;;9.63;5.60;;;4.60;99.90;;;;;;5035589;28;20164;-86
2020/12/05 07:33:26;;;;;;;8.80;5.40;;;4.70;99.90;;;;;;5035066;28;20163;-86
2020/12/05 07:36:00;;;;;;;6.77;5.97;;;4.70;99.90;;;;;;5035501;28;20168;-85
2020/12/05 07:38:28;;;;;;;9.65;6.55;;;4.70;99.90;;;;;;5034653;28;20454;-85
2020/12/05 07:40:56;;;;;;;7.10;5.30;;;5.20;99.90;;;;;;5035089;28;20189;-84
2020/12/05 07:43:22;;;;;;;5.87;5.13;;;5.10;99.90;;;;;;5052961;28;20527;-83
2020/12/05 07:45:51;;;;;;;10.27;5.70;;;5.40;99.90;;;;;;5052379;28;20412;-84
2020/12/05 07:48:20;;;;;;;8.47;5.30;;;5.60;99.90;;;;;;5035254;28;20173;-84
2020/12/05 07:50:47;;;;;;;6.93;4.23;;;5.80;99.90;;;;;;5035165;28;20169;-84
2020/12/05 07:53:23;;;;;;;6.18;4.43;;;6.00;99.90;;;;;;5034732;28;20422;-84
2020/12/05 07:55:53;;;;;;;4.43;3.67;;;6.00;99.90;;;;;;5035003;28;20634;-84
2020/12/05 07:58:19;;;;;;;5.43;4.13;;;5.90;99.90;;;;;;5036104;28;20240;-84
2020/12/05 08:00:45;;;;;;;6.17;4.10;;;5.80;99.90;;;;;;5056592;28;20199;-84
2020/12/05 08:03:48;;;;;;;5.23;4.27;;;5.80;99.90;;;;;;5038053;28;20199;-83
2020/12/05 08:06:29;;;;;;;5.67;4.47;;;5.90;99.90;;;;;;5038018;28;20423;-83
2020/12/05 08:09:03;;;;;;;7.37;3.93;;;6.00;99.90;;;;;;5038709;28;20584;-83
2020/12/05 08:11:37;;;;;;;9.27;4.13;;;6.00;99.90;;;;;;5038692;28;20175;-84
2020/12/05 08:14:04;;;;;;;6.40;3.70;;;5.90;99.90;;;;;;5038771;28;20164;-84
2020/12/05 08:16:36;;;;;;;7.83;4.97;;;6.00;99.90;;;;;;5056423;28;20424;-83
2020/12/05 08:19:02;;;;;;;6.37;4.33;;;6.10;99.90;;;;;;5038534;28;20253;-83
2020/12/05 08:21:32;;;;;;;7.37;4.77;;;6.10;99.90;;;;;;5038050;28;20224;-83
2020/12/05 08:24:10;;;;;;;9.10;5.03;;;6.20;99.90;;;;;;5038446;28;20175;-83
2020/12/05 08:26:37;;;;;;;8.03;4.87;;;6.00;99.90;;;;;;5038363;28;20168;-83
2020/12/05 08:29:04;;;;;;;5.17;4.67;;;5.90;99.90;;;;;;5038273;28;20168;-83
2020/12/05 08:31:40;;;;;;;6.77;4.10;;;6.00;99.90;;;;;;5037779;28;20639;-84
2020/12/05 08:34:06;;;;;;;5.13;4.07;;;6.00;99.90;;;;;;5038442;28;20248;-84
2020/12/05 08:36:34;;;;;;;9.13;4.43;;;6.20;99.90;;;;;;5038242;28;20196;-84
2020/12/05 08:39:16;;;;;;;5.70;4.00;;;6.10;99.90;;;;;;5038114;28;20164;-84
2020/12/05 08:41:50;;;;;;;5.77;3.83;;;6.20;99.90;;;;;;5038186;28;20188;-84
2020/12/05 08:44:21;;;;;;;4.33;3.83;;;6.00;99.90;;;;;;5038672;28;20160;-83
2020/12/05 08:47:02;;;;;;;6.13;3.50;;;6.00;99.90;;;;;;5038053;28;20527;-84
2020/12/05 08:49:28;;;;;;;4.67;4.20;;;6.10;99.90;;;;;;5055652;28;20190;-84
2020/12/05 08:51:59;;;;;;;5.30;4.07;;;6.10;99.90;;;;;;5055455;28;20176;-84
2020/12/05 08:54:25;;;;;;;4.40;3.67;;;6.20;99.90;;;;;;5018037;28;20184;-84
2020/12/05 08:57:05;;;;;;;5.10;3.50;;;6.00;99.90;;;;;;5017720;28;20170;-84
2020/12/05 08:59:31;;;;;;;8.70;3.87;;;6.10;99.90;;;;;;5017899;28;20162;-82
2020/12/05 09:01:57;;;;;;;3.57;3.27;;;6.10;99.90;;;;;;5034289;28;20212;-83
2020/12/05 09:04:31;;;;;;;5.47;3.60;;;6.20;99.90;;;;;;5035475;28;20165;-83
2020/12/05 09:07:09;;;;;;;9.10;3.67;;;6.30;99.90;;;;;;5038317;28;20193;-83
2020/12/05 09:09:40;;;;;;;8.77;3.77;;;6.20;99.90;;;;;;5037218;28;20658;-84
2020/12/05 09:12:11;;;;;;;7.67;4.70;;;6.40;99.90;;;;;;5037616;28;20631;-83
2020/12/05 09:14:38;;;;;;;6.17;3.63;;;6.30;99.90;;;;;;5037437;28;20200;-81
2020/12/05 09:17:19;;;;;;;5.17;3.73;;;6.20;99.90;;;;;;5037410;28;20165;-82
2020/12/05 09:19:45;;;;;;;4.60;3.63;;;6.20;99.90;;;;;;5037483;28;20255;-82
2020/12/05 09:22:33;;;;;;;7.40;4.17;;;6.30;99.90;;;;;;5020649;28;20323;-82
2020/12/05 09:24:59;;;;;;;4.93;3.87;;;6.20;99.90;;;;;;5036637;28;20255;-82
2020/12/05 09:27:38;;;;;;;5.35;4.10;;;6.20;99.90;;;;;;5036425;28;20972;-85
2020/12/05 09:30:14;;;;;;;5.77;3.97;;;6.30;99.90;;;;;;5037135;28;20230;-83
2020/12/05 09:32:42;;;;;;;5.27;3.63;;;6.50;99.90;;;;;;5021475;28;20173;-83
2020/12/05 09:35:08;;;;;;;6.33;3.87;;;6.30;99.90;;;;;;5017203;28;20169;-83
2020/12/05 09:37:34;;;;;;;8.07;4.83;;;6.30;99.90;;;;;;5016118;28;20409;-83
2020/12/05 09:40:00;;;;;;;7.30;4.60;;;6.40;99.90;;;;;;5017216;28;20199;-84
2020/12/05 09:42:26;;;;;;;9.57;5.73;;;6.60;99.90;;;;;;5017008;28;20679;-83
2020/12/05 09:44:54;;;;;;;6.17;4.60;;;6.70;99.90;;;;;;5032449;28;20502;-83
2020/12/05 09:47:20;;;;;;;6.17;4.10;;;6.80;99.90;;;;;;5036901;28;20251;-83
2020/12/05 09:49:46;;;;;;;8.13;3.87;;;6.70;99.90;;;;;;5036896;28;20650;-83
2020/12/05 09:52:11;;;;;;;9.57;3.83;;;6.80;99.90;;;;;;5036726;28;20172;-83
2020/12/05 09:54:40;;;;;;;5.00;3.20;;;6.70;99.90;;;;;;5036703;28;20168;-84
2020/12/05 09:57:06;;;;;;;4.17;3.17;;;6.70;99.90;;;;;;5036561;28;20169;-83
2020/12/05 09:59:35;;;;;;;6.87;3.50;;;6.70;99.90;;;;;;5036372;28;20196;-84
2020/12/05 10:02:08;;;;;;;5.23;3.70;;;6.80;99.90;;;;;;5036244;28;20561;-84
2020/12/05 10:04:33;;;;;;;6.37;3.50;;;6.80;99.90;;;;;;5036565;28;20165;-84
2020/12/05 10:06:59;;;;;;;8.73;3.37;;;6.70;99.90;;;;;;5035984;28;20194;-85
2020/12/05 10:09:25;;;;;;;6.77;3.63;;;6.80;99.90;;;;;;5036603;28;20192;-84
2020/12/05 10:11:50;;;;;;;4.97;2.77;;;6.90;99.90;;;;;;5036467;28;20179;-84
2020/12/05 10:14:16;;;;;;;4.87;3.03;;;6.80;99.90;;;;;;5036330;28;20654;-84
2020/12/05 10:16:41;;;;;;;3.37;2.83;;;6.70;99.90;;;;;;5036505;28;20164;-84
2020/12/05 10:19:07;;;;;;;2.93;2.70;;;6.70;99.90;;;;;;5036243;28;20180;-85
2020/12/05 10:21:33;;;;;;;3.30;3.00;;;6.70;99.90;;;;;;5036737;28;20223;-84
2020/12/05 10:23:58;;;;;;;3.97;2.43;;;6.70;99.90;;;;;;5053645;28;20169;-84
2020/12/05 10:26:24;;;;;;;3.97;2.50;;;6.90;99.90;;;;;;5035995;28;20174;-83
2020/12/05 10:28:50;;;;;;;4.83;2.40;;;6.90;99.90;;;;;;5036181;28;20522;-83
2020/12/05 10:31:15;;;;;;;7.23;2.97;;;6.90;99.90;;;;;;5018060;28;20227;-83
2020/12/05 10:33:41;;;;;;;5.37;2.90;;;6.90;99.90;;;;;;5033978;28;20658;-83
2020/12/05 10:36:06;;;;;;;2.20;2.00;;;6.90;99.90;;;;;;5036055;28;20191;-83
2020/12/05 10:38:32;;;;;;;4.77;2.30;;;6.90;99.90;;;;;;5027546;28;20169;-82
2020/12/05 10:40:58;;;;;;;2.90;2.60;;;6.70;99.90;;;;;;5016082;28;20254;-83
2020/12/05 10:43:24;;;;;;;2.27;2.07;;;6.60;99.90;;;;;;5016184;28;20296;-82
2020/12/05 10:45:52;;;;;;;6.73;2.40;;;6.50;99.90;;;;;;5016049;28;20161;-83
2020/12/05 10:48:18;;;;;;;6.33;2.33;;;6.50;99.90;;;;;;5016002;28;20191;-85
2020/12/05 10:50:43;;;;;;;3.83;2.07;;;6.50;99.90;;;;;;5015890;28;20169;-84
2020/12/05 10:53:09;;;;;;;3.50;2.13;;;6.60;99.90;;;;;;5015866;28;20168;-83
2020/12/05 10:55:35;;;;;;;2.60;2.00;;;6.70;99.90;;;;;;4999665;28;20169;-83
2020/12/05 10:58:00;;;;;;;4.53;2.30;;;6.70;99.90;;;;;;5016131;28;20173;-84
2020/12/05 11:00:26;;;;;;;3.75;2.13;;;6.70;99.90;;;;;;5032644;28;20409;-84
2020/12/05 11:02:54;;;;;;;2.93;2.17;;;6.90;99.90;;;;;;5026466;28;20207;-86
2020/12/05 11:05:20;;;;;;;3.83;1.90;;;7.00;99.90;;;;;;5035491;28;20172;-85
2020/12/05 11:07:45;;;;;;;2.63;1.60;;;7.00;99.90;;;;;;5036178;28;20169;-84
2020/12/05 11:10:11;;;;;;;3.03;1.90;;;6.80;99.90;;;;;;5035797;28;20255;-84
2020/12/05 11:12:37;;;;;;;4.20;2.50;;;6.90;99.90;;;;;;5035557;28;20168;-84
2020/12/05 11:15:05;;;;;;;3.60;1.80;;;7.00;99.90;;;;;;5035848;28;20604;-85
2020/12/05 11:17:34;;;;;;;2.70;2.10;;;7.00;99.90;;;;;;5035571;28;20643;-85
2020/12/05 11:19:59;;;;;;;4.23;2.23;;;7.20;99.90;;;;;;5035583;28;20172;-84
2020/12/05 11:22:25;;;;;;;3.93;2.13;;;7.20;99.90;;;;;;5035560;28;20217;-84
2020/12/05 11:24:51;;;;;;;4.70;1.93;;;7.30;99.90;;;;;;5035562;28;20215;-83
2020/12/05 11:27:19;;;;;;;5.20;2.80;;;7.20;99.90;;;;;;5035541;28;20175;-86
2020/12/05 11:29:45;;;;;;;8.47;2.87;;;7.30;99.90;;;;;;5035932;28;20187;-85
2020/12/05 11:32:10;;;;;;;5.63;2.20;;;7.40;99.90;;;;;;5018401;28;20180;-84
2020/12/05 11:34:36;;;;;;;4.87;2.13;;;7.50;99.90;;;;;;5038106;28;20620;-83
2020/12/05 11:37:02;;;;;;;5.97;2.00;;;7.30;99.90;;;;;;5057298;28;20168;-84
2020/12/05 11:39:27;;;;;;;5.53;1.90;;;7.30;99.90;;;;;;5039239;28;20314;-85
2020/12/05 11:41:53;;;;;;;3.03;1.80;;;7.30;99.90;;;;;;5039367;28;20679;-85
2020/12/05 11:44:19;;;;;;;6.23;2.70;;;7.30;99.90;;;;;;5039351;28;20188;-86
2020/12/05 11:46:44;;;;;;;5.33;3.10;;;7.40;99.90;;;;;;5039722;28;20345;-85
2020/12/05 11:49:10;;;;;;;4.30;2.00;;;7.50;99.90;;;;;;5039225;28;20219;-84
2020/12/05 11:51:38;;;;;;;4.27;2.07;;;7.50;99.90;;;;;;5039089;28;20168;-83
2020/12/05 11:54:04;;;;;;;2.73;1.80;;;7.40;99.90;;;;;;5038567;28;20173;-83
2020/12/05 11:56:29;;;;;;;5.37;2.20;;;7.30;99.90;;;;;;5038882;28;20191;-86
2020/12/05 11:58:57;;;;;;;3.87;2.57;;;7.50;99.90;;;;;;5039175;28;20230;-84
2020/12/05 12:01:26;;;;;;;2.63;2.20;;;7.70;99.90;;;;;;5038842;28;20189;-83
2020/12/05 12:03:51;;;;;;;6.03;1.70;;;7.80;99.90;;;;;;5038881;28;20200;-85
2020/12/05 12:06:19;;;;;;;1.83;1.70;;;7.80;99.90;;;;;;5039082;28;20577;-85
2020/12/05 12:08:46;;;;;;;3.80;1.80;;;7.80;99.90;;;;;;5038923;28;20697;-85
2020/12/05 12:11:22;;;;;;;5.10;1.83;;;7.90;99.90;;;;;;5039051;28;20165;-86
2020/12/05 12:13:48;;;;;;;4.03;1.50;;;7.90;99.90;;;;;;5038823;28;20626;-84
2020/12/05 12:16:14;;;;;;;2.10;1.40;;;7.90;99.90;;;;;;5038747;28;20214;-85
2020/12/05 12:18:40;;;;;;;1.20;1.10;;;7.80;99.90;;;;;;5038793;28;20168;-85
2020/12/05 12:21:06;;;;;;;3.40;1.60;;;7.70;99.90;;;;;;5038349;28;20725;-85
2020/12/05 12:23:35;;;;;;;3.50;1.70;;;7.80;99.90;;;;;;5038283;28;20172;-84
2020/12/05 12:26:01;;;;;;;1.43;1.20;;;8.10;99.90;;;;;;5038324;28;20634;-84
2020/12/05 12:28:27;;;;;;;2.20;1.87;;;7.90;99.90;;;;;;5038174;28;20168;-84
2020/12/05 12:30:56;;;;;;;2.20;1.37;;;8.00;99.90;;;;;;5038228;28;20195;-84
2020/12/05 12:33:21;;;;;;;2.40;1.60;;;8.00;99.90;;;;;;5056072;28;20624;-83
2020/12/05 12:35:50;;;;;;;2.53;1.50;;;8.30;99.90;;;;;;5038225;28;20176;-82
2020/12/05 12:38:15;;;;;;;7.40;1.63;;;8.30;99.90;;;;;;5038096;28;20647;-82
2020/12/05 12:40:41;;;;;;;2.27;1.40;;;8.20;99.90;;;;;;5038122;28;20164;-83
2020/12/05 12:43:09;;;;;;;2.17;1.53;;;8.10;99.90;;;;;;5038101;28;20231;-82
2020/12/05 12:45:34;;;;;;;2.43;1.43;;;8.00;99.90;;;;;;5037465;28;20203;-84
2020/12/05 12:50:37;;;;;;;4.23;1.60;;;7.90;99.90;;;;;;5056202;28;20168;-83
2020/12/05 12:53:03;;;;;;;1.63;1.23;;;8.20;99.90;;;;;;5037742;28;20263;-83
2020/12/05 12:55:29;;;;;;;2.23;1.30;;;8.50;99.90;;;;;;5037333;28;20165;-84
2020/12/05 12:58:04;;;;;;;2.40;1.90;;;8.60;99.90;;;;;;5037530;28;20180;-83
2020/12/05 13:00:29;;;;;;;2.10;1.67;;;8.40;99.90;;;;;;5037802;28;20171;-82
2020/12/05 13:02:55;;;;;;;3.13;1.67;;;8.40;99.90;;;;;;5055470;28;20200;-84
2020/12/05 13:05:20;;;;;;;6.13;1.80;;;8.40;99.90;;;;;;5037543;28;20180;-82
2020/12/05 13:07:46;;;;;;;5.70;1.47;;;8.40;99.90;;;;;;5037599;28;20200;-83